Following are Alpine Race Results and Penalty Report


Ski Race Results generated by:
     USSA Race Software, Alpine/Snowboard/Cross Country Version 6.30 Revision 5
     Software written by Split Second, Inc.   www.SplitSecond.com


~~~~~~~~~~~~~~~~~~~~~~~~~~~~~~~~~~~~~~~~~~~~~~~~~~~~~~~~~~~~~~~~~~~~~~~~~~~~~~~~
                       U.S. SKI AND SNOWBOARD ASSOCIATION                       

                            SNOWBIRD SNOWCUP SERIES                             

                            USSA RACE CODE No. U0671                            
Snowbird Sports Education Foundation                               APRIL 5, 2014
Snowbird Ski and Summer Resort                                     Intermountain
--------------------------------------------------------------------------------

                             S L A L O M     M E N                              
                                OFFICIAL RESULTS                                

JURY                                          TECHNICAL DATA

TD               Corrock, Ken         (USA)   COURSE     WILBERE RIDGE RACE HILL
REFEREE          Schowengerdt, Stephen(USA)   START                       2576 M
CHIEF OF RACE    Bounous, Steve       (USA)   FINISH                      2420 M
                                              VERTICAL DROP                156 M
                                              
                                              HOMOLOG.Nr.             9779/11/10


                 1st RUN                          2nd RUN
COURSE SETTER    Bounous, Steve       (USA)       Kerwynn, Dave        (USA)
FORERUNNERS  -A- Jeremy Mathers       (USA)   -A- Jeremy Mathers       (USA)
             -B- Asa Turok            (USA)   -B- Asa Turok            (USA)
             -C- Max Brown            (USA)   -C- Max Brown            (USA)
             -D- Charlie Rinehart     (USA)   -D- Charlie Rinehart     (USA)
             -E-                              -E- 

GATES/DIR CHANGES   57/(56)                          49/(48)
START TIME        9.00                            12.00
WEATHER: SNOWING              SNOW: VARIABLE              TEMP. S:  1 C F:  2 C
-----------------------    UNOFFICIAL PENALTY   24.03    -----------------------
                                                                          F=620
 PL BIB  USSA    COMPETITOR---------------------   TIME    TIME    TOTAL    RACE
     Nr  Nr      SURNAME+NAME             NAT/YR  1stRUN  2ndRUN    TIME  POINTS

  1  14 I5911243 STUERCKE, Hunter          RM/95   45.69   45.86 1:31.55    0.00
  2   6 I6044044 DOMONOSKE, David        PCST/97   45.72   46.64 1:32.36    5.49
  3   4 X6494793 Brath, Joergen           NOR/91   45.52   47.14 1:32.66    7.52
  4   9 I6009849 KEITH, Jacob              SB/93   46.27   46.78 1:33.05   10.16
  5   8 X6446397 Trow, Andy               CAN/91   46.05   47.26 1:33.31   11.92
  6  13 I5828546 CARESTIA, Ralf          PCST/96   46.46   46.94 1:33.40   12.53
  7  19 I5949524 TROYER, Stockton       SVSEF/97   46.79   46.87 1:33.66   14.29
  8  12 I5877766 TOTMAN, Ryan            OVST/96   47.21   46.59 1:33.80   15.24
  9  11 I6004998 MATHERS, Luke             RM/97   46.67   47.14 1:33.81   15.31
 10  18 I6099535 Miller, Andrew          PCST/98   48.02   46.23 1:34.25   18.29
 11   5 I5739180 CLEASON, James            RM/93   49.03   45.33 1:34.36   19.03
 12   3 I6046734 Birkner, Alexander        RM/98   47.10   47.39 1:34.49   19.91
 13  15 I6139539 MCINNIS, Tristan          RM/95   47.84   46.78 1:34.62   20.79
 14   2 I5814660 THOMASON, Joey          OVST/95   47.41   47.40 1:34.81   22.08
 15  24 I6005300 Feldman, John             SB/98   48.39   46.47 1:34.86   22.42


05-04-14 / Snowbird Ski and Summer RLIST: NLM1114              U0671     SM8 / 1
--------------------------------------------------------------------------------
DATA PROCESSING BY USSA SOFTWARE                       ALGE TDC 8000/8001 TIMING
~~~~~~~~~~~~~~~~~~~~~~~~~~~~~~~~~~~ NEW PAGE ~~~~~~~~~~~~~~~~~~~~~~~~~~~~~~~~~~~
                       U.S. SKI AND SNOWBOARD ASSOCIATION                       

                            SNOWBIRD SNOWCUP SERIES                             

                            USSA RACE CODE No. U0671                            
Snowbird Sports Education Foundation                               APRIL 5, 2014
Snowbird Ski and Summer Resort                                     Intermountain
--------------------------------------------------------------------------------

 PL BIB  USSA    COMPETITOR---------------------   TIME    TIME    TOTAL    RACE
     Nr  Nr      SURNAME+NAME             NAT/YR  1stRUN  2ndRUN    TIME  POINTS

 16   7 I6112254 ASTLE, Bryce              SB/95   52.77   42.15 1:34.92   22.82
 17   1 I5830757 KAMPHUIS, Colin           SB/93   47.48   47.53 1:35.01   23.43
 18  10 I6084339 LARSEN, Gray              RM/97   49.13   46.18 1:35.31   25.46
 19  27 I6059844 SAVARIA, Austin        SVSEF/97   49.12   47.52 1:36.64   34.47
 20  25 I6010193 GLASGOW, Matthew          RM/97   50.05   47.28 1:37.33   39.14
 21  31 I6084404 HENDERSON, Macintyre    PCST/97   49.55   48.41 1:37.96   43.41
 22  21 I5944897 POPE, T J                 RM/96   50.25   48.42 1:38.67   48.22
 23  43 I6077010 CURTIS, Griffin        SVSEF/97   51.92   49.03 1:40.95   63.66
 24  17 I5895511 DAVIDSON, Brian         OVST/96   53.48   47.72 1:41.20   65.35
 25  29 I6006548 Mastor, Sebastian      SVSEF/99   51.57   49.92 1:41.49   67.32
 26  45 I6035000 Terjeson, Hayden        MWSC/99   52.21   49.44 1:41.65   68.40
 27  37 I6187959 Lee, Aydon              PCST/98   52.36   49.37 1:41.73   68.94
 28  39 I6065189 McGrath, Scott          PCST/99   53.28   48.62 1:41.90   70.09
 29  28 I6304172 GRAHAM, Theodore          SB/97   52.89   49.60 1:42.49   74.09
 30  48 I6004204 KERN, Hunter           SVSEF/97   53.44   51.80 1:45.24   92.71
 31  55 I6133938 Carlson, Hunter         PCST/98   53.67   52.10 1:45.77   96.30
 32  51 I6081830 DeWolfe, Kristian      SVSEF/98   55.33   51.52 1:46.85  103.62
 33  46 I6222155 Blackburn, John        SVSEF/98   54.63   52.69 1:47.32  106.80
 34  54 I6241858 Ahmann, Kyle            OVST/98   55.16   53.09 1:48.25  113.10
 35  61 I6215545 Rinehart, Jackson         SB/98   55.81   53.96 1:49.77  123.39
 36  64 I6187983 Carpenter, Max          PCST/99   56.58   53.93 1:50.51  128.40
 37  56 I6145155 Smith, Wyatt           SVSEF/98   57.22   54.39 1:51.61  135.85
 38 100 I6425216 Kohler, Leo             JHSC/00   57.21   54.64 1:51.85  137.48
 39  73 I6217653 Cumming, Shane          PCST/00   58.24   53.65 1:51.89  137.75
 40  52 I6187868 Askmo, Maximilien       PCST/99   57.73   55.29 1:53.02  145.40
 41  79 I6186209 Dalton, Jack            PCST/99   58.12   55.06 1:53.18  146.48
 42  62 I6264943 Mulligan, Daniel        JHSC/99   58.67   55.42 1:54.09  152.65
 43  57 I6164149 Orford, Matthew           RM/99   58.60   55.69 1:54.29  154.00
 44  58 I6021133 Mullens, Ian              BB/98   59.61   55.66 1:55.27  160.64
 45  30 I6077044 SAY, Emmett            SVSEF/97 1:03.50   52.08 1:55.58  162.74
 46  22 I6146724 Peek, Jonas             PCST/98 1:05.12   50.87 1:55.99  165.51
 47  77 I6174452 Allison, Robbie         PCST/00 1:00.25   55.83 1:56.08  166.12
 48  84 I6083356 Chai, Logan            SVSEF/00   59.23   57.14 1:56.37  168.09
 49  67 X6468599 Percy, Alexander        PCST/99   59.68   56.93 1:56.61  169.71
 50  47 I5874474 BROWN, Stanton          OVST/96   59.63   57.16 1:56.79  170.93
 51  94 I6299531 Fiveash, Charlie        PCST/00 1:00.95   58.53 1:59.48  189.15
 52  71 I6165245 Rochat, Luc             OVST/99 1:03.59   56.56 2:00.15  193.69
 53  72 I6242984 Rosenblum, Jonathan     PCST/99 1:02.62   57.94 2:00.56  196.46
 54  74 I6200604 Shea, Steve             JHSC/99 1:03.78   58.23 2:02.01  206.28
 55  53 I6188940 Leininger, Noah        SVSEF/99 1:06.63   55.39 2:02.02  206.35
 56  96 I6174254 Borghetti, Nicolo         SB/00 1:06.44   55.66 2:02.10  206.89
 57  83 I6242267 Padan, Alec             PCST/00 1:01.11 1:01.53 2:02.64  210.55

05-04-14 / Snowbird Ski and Summer RLIST: NLM1114              U0671     SM8 / 2
--------------------------------------------------------------------------------
DATA PROCESSING BY USSA SOFTWARE                       ALGE TDC 8000/8001 TIMING
~~~~~~~~~~~~~~~~~~~~~~~~~~~~~~~~~~~ NEW PAGE ~~~~~~~~~~~~~~~~~~~~~~~~~~~~~~~~~~~
                       U.S. SKI AND SNOWBOARD ASSOCIATION                       

                            SNOWBIRD SNOWCUP SERIES                             

                            USSA RACE CODE No. U0671                            
Snowbird Sports Education Foundation                               APRIL 5, 2014
Snowbird Ski and Summer Resort                                     Intermountain
--------------------------------------------------------------------------------

 PL BIB  USSA    COMPETITOR---------------------   TIME    TIME    TOTAL    RACE
     Nr  Nr      SURNAME+NAME             NAT/YR  1stRUN  2ndRUN    TIME  POINTS

 58  80 I6353999 Thomas, Nathan          PCST/99 1:03.35   59.53 2:02.88  212.17
 59  90 I6242515 Fischer, Patrick        PCST/00 1:02.30 1:01.32 2:03.62  217.19
 60  59 I6087241 Langston, Caton           BB/99 1:08.75   56.16 2:04.91  225.92
 61  50 I6054571 Bocock, Scott             RM/00 1:11.26   54.10 2:05.36  228.97
 62 101 I6305299 Planelles, Tristan       BCT/00 1:04.34 1:01.24 2:05.58  230.46
 63  78 I6147722 Chaffee, Jordan           SB/99 1:05.61 1:00.76 2:06.37  235.81
 64  82 I6177745 Webber, Keegan         SVSEF/99 1:04.68 1:01.78 2:06.46  236.42
 65  70 I6336985 Wagner, Isaiah           BCT/99 1:09.91   57.14 2:07.05  240.42
 66  69 I6054795 BENNETT, Nathan           SB/96 1:05.49 1:03.35 2:08.84  252.54
 67  86 I6092753 Brown, Zach              SST/96 1:05.48 1:04.12 2:09.60  257.68
 68  91 I6427754 Gibbs, Ian               BCT/99 1:07.87 1:03.07 2:10.94  266.76
 69 104 I6494400 Travers, Benjamin      SVSEF/00 1:09.17 1:04.55 2:13.72  285.59
 70 102 I6254154 Parazette, Holden       JHSC/00 1:19.87   56.39 2:16.26  302.79
 71  68 I6015366 FUERTSCH, Charles       OVST/96 1:02.97 1:17.87 2:20.84  333.80
 72  76 I6169866 Stumph, Charlie        SVSEF/00 1:24.87   56.84 2:21.71  339.70
 73  93 I6288969 Hacking, Matthew         BCT/98 1:17.82 1:11.13 2:28.95  388.73
 74  88 I6118087 Wickstrom, Keegan         BB/98 1:07.66 1:24.11 2:31.77  407.83

DID NOT START 1st RUN
    107 I6293740 Jacobs, Tiernan         PCST/99
    105 I6174411 Stevens, Cameron         SST/00
     65 I6242291 Lawson, Ben             PCST/00
     38 I6100051 Howells, Trey           PCST/98

DID NOT FINISH 1st RUN
     97 I6117006 Fitzgerald, Mackay        BB/00
     92 I6247742 Young, Hunter           OVST/00
     89 I6128144 Biskupiak, Zack           SB/99
     85 I6442970 Oconnor, Matt          SVSEF/00
     63 I6078893 DOWSON, Casey           JHSC/96
     60 I6147250 Harrison, Cooper        OVST/99
     49 I6121719 Dart, Cooper           SVSEF/99
     44 I6076715 Benzon, Ethan             SB/99
     42 I6249197 ASTIE, Romain           PCST/97
     40 I6151724 McClure, Yuri          SVSEF/98
     36 I6093579 TASEVAC, Aydin          PCST/95
     35 I6205850 Rizzotti, Trevor        JHSC/99
     33 I5993084 BRAZEROL, Dominik       PCST/97
     32 I6170625 GOULD, Trenor          SVSEF/97
     26 I6061998 FITZGERALD, Jay        SVSEF/97
     20 I6107734 Wilson, Calvin          PCST/98


05-04-14 / Snowbird Ski and Summer RLIST: NLM1114              U0671     SM8 / 3
--------------------------------------------------------------------------------
DATA PROCESSING BY USSA SOFTWARE                       ALGE TDC 8000/8001 TIMING
~~~~~~~~~~~~~~~~~~~~~~~~~~~~~~~~~~~ NEW PAGE ~~~~~~~~~~~~~~~~~~~~~~~~~~~~~~~~~~~
                       U.S. SKI AND SNOWBOARD ASSOCIATION                       

                            SNOWBIRD SNOWCUP SERIES                             

                            USSA RACE CODE No. U0671                            
Snowbird Sports Education Foundation                               APRIL 5, 2014
Snowbird Ski and Summer Resort                                     Intermountain
--------------------------------------------------------------------------------

 PL BIB  USSA    COMPETITOR---------------------   TIME    TIME    TOTAL    RACE
     Nr  Nr      SURNAME+NAME             NAT/YR  1stRUN  2ndRUN    TIME  POINTS

DISQUALIFIED 1st RUN
    106 I6274802 Denis, Chris            JHSC/00   GATE   23

DID NOT START 2nd RUN
     95 I6296826 Reiss, Colman           PCST/00

DID NOT FINISH 2nd RUN
    103 I6495623 Mueller, Bennett        PCST/00
     99 I6179428 Belmont, Christian      OVST/00
     87 I6219629 Griffiths, Tommy        PCST/99
     81 I6132187 Picot, Declan             SB/99
     75 I6163711 Humlicek, Patrick        BCT/97
     66 I6222174 Blackburn, Jake        SVSEF/00
     41 I6252760 Coury, Zachary            RM/98
     34 I6102107 Morgan, Cole              RM/98
     23 I6053722 Fontaine, Nicholas        RM/98
     16 I6076871 Snyder, Will           SVSEF/98

DISQUALIFIED 2nd RUN
     98 I6424674 Doyle, Owen             JHSC/00   GATE   11

                                                TECHNICAL DELEGATE

                                                Corrock, Ken         (USA)



















05-04-14 / Snowbird Ski and Summer RLIST: NLM1114              U0671     SM8 / 4
--------------------------------------------------------------------------------
DATA PROCESSING BY USSA SOFTWARE                       ALGE TDC 8000/8001 TIMING
~~~~~~~~~~~~~~~~~~~~~~~~~~~~~~~~~~~ NEW PAGE ~~~~~~~~~~~~~~~~~~~~~~~~~~~~~~~~~~~
                       U.S. SKI AND SNOWBOARD ASSOCIATION                       

                            SNOWBIRD SNOWCUP SERIES                             

                            USSA RACE CODE No. U0671                            
Snowbird Sports Education Foundation                               APRIL 5, 2014
Snowbird Ski and Summer Resort                                     Intermountain
--------------------------------------------------------------------------------
                             S L A L O M     M E N                              
                            USSA PENALTY CALCULATION                            

 THE BEST 10 AT FINISH:

  RACE    BIB    CODE   COMPETITOR                     USSA   BEST 5      RACE
 RESULT   NR.           SURNAME+NAME                 POINTS             POINTS

     1     14 I5911243  STUERCKE, Hunter              35.87    35.87      0.00
     2      6 I6044044  DOMONOSKE, David              49.99
     3      4 X6494793  Brath, Joergen                18.35    18.35      7.52
     4      9 I6009849  KEITH, Jacob                  39.88    39.88     10.16
     5      8 X6446397  Trow, Andy                    13.98    13.98     11.92
     6     13 I5828546  CARESTIA, Ralf                48.25    48.25     12.53
     7     19 I5949524  TROYER, Stockton              68.71
     8     12 I5877766  TOTMAN, Ryan                  60.04
     9     11 I6004998  MATHERS, Luke                 52.62
    10     18 I6099535  Miller, Andrew                67.85

 THE BEST 5 AT START:

     5      8 X6446397  Trow, Andy                    13.98
     3      4 X6494793  Brath, Joergen                18.35
    16      7 I6112254  ASTLE, Bryce                  22.99
    11      5 I5739180  CLEASON, James                34.89
     1     14 I5911243  STUERCKE, Hunter              35.87

TOTALS                                              --------
(B) USSA POINTS OF BEST 5 AT START                   126.08  --------
(A) USSA POINTS OF BEST 5 TO FINISH IN TOP 10                 156.33   --------
(C)  RACE POINTS OF CORRESPONDING COMPETITORS                            42.13

CALCULATED PENALTY  156.33 + 126.08 -  42.13 : 10  =                     24.028
                      (A)      (B)      (C)

ROUNDED                                                                  24.03

PENALTY APPLIED:                                                         24.03

                                     _______________________
                                     Corrock, Ken         (USA)

05-04-14 / Snowbird Ski and Summer RLIST: NLM1114              U0671     SM9 / 1
--------------------------------------------------------------------------------
DATA PROCESSING BY USSA SOFTWARE                       ALGE TDC 8000/8001 TIMING
~~~~~~~~~~~~~~~~~~~~~~~~~~~~~~~~~~~ NEW PAGE ~~~~~~~~~~~~~~~~~~~~~~~~~~~~~~~~~~~